KSEZKGYR

Guest
Details From KSEZ - Sedona Airport
To KGYR - Phoenix Goodyear
Flight Number -
Tags generated
Created
Modified
Stats Distance 90 nm / 168 km
Max Altitude 5,200 ft / 1,585 m
Waypoints 3
Social Downloads 1
Likes 0
Share

Download

Looking for another format? Having issues loading an existing format? Contact us
Advertisement - Login to hide

Notes

Basic altitude profile: - Ascent Rate: 2500ft/min - Ascent Speed: 250kts - Cruise Altitude: 8000ft - Cruise Speed: 420kts - Descent Rate: 1500ft/min - Descent Speed: 250kts Options: - Use NATs: yes - Use PACOTS: yes - Use low airways: yes - Use high airways: yes

Route

KSEZ JONHH KGYR

ID Type Via Altitude (ft/m) Position (lat/lon) Dist (leg/tot) Name
O KSEZ APT - 0 / 0 34.84860 / -111.78800 - / 0 nm Sedona Airport
JONHH FIX - 5,200 / 1,585 33.80470 / -112.19700 65 / 65 nm
O KGYR APT - 0 / 0 33.42330 / -112.37500 24 / 90 nm Phoenix Goodyear

Altitude Profile

Advertisement - Login to hide

KSEZ

Details ICAO KSEZ (SDX)
Name Sedona Airport
Region United States
Timezone America/Phoenix (UTC-7.0)
Stats Elevation 4,830 ft / 1,472 m (AMSL)
Location 34.848600° -111.788000°
Runways 1
Magnetic Variation 10.096° E

METAR

KSEZ 192335Z AUTO 00000KT 10SM CLR 17/00 A3007 RMK AO2

Decode

TAF

TAF KSEZ 192320Z 2000/2024 18008KT P6SM SKC FM200300 05009KT P6SM SKC FM201600 16006KT P6SM SCT250

Decode

Departure Runways

ID Width Length Bearing (true/mag) Surface Threshold Overrun Markings Lighting
03 100 ft / 30 m 5,137 ft / 1,566 m 45.64° / 35.54° ASPHALT 0 ft / 0 m 118 ft / 36 m APP EDGE THRESHOLD REIL-OMNI
21 100 ft / 30 m 5,137 ft / 1,566 m 225.64° / 215.55° ASPHALT 0 ft / 0 m 131 ft / 40 m APP EDGE THRESHOLD REIL-OMNI

KGYR

Details ICAO KGYR (GYR)
Name Phoenix Goodyear
Region United States
Timezone America/Phoenix (UTC-7.0)
Stats Elevation 968 ft / 295 m (AMSL)
Location 33.423300° -112.375000°
Runways 1
Magnetic Variation 10.070° E

METAR

KGYR 192247Z 00000KT 10SM FEW070 25/08 A2994

Decode

TAF

Not found

Destination Runways

ID Width Length Bearing (true/mag) Surface Threshold Overrun Markings Lighting
03 150 ft / 46 m 8,508 ft / 2,593 m 37.97° / 27.90° ASPHALT 0 ft / 0 m 190 ft / 58 m PREC-APP EDGE THRESHOLD REIL-OMNI
21 150 ft / 46 m 8,508 ft / 2,593 m 217.98° / 207.91° ASPHALT 0 ft / 0 m 299 ft / 91 m PREC-APP EDGE THRESHOLD REIL-OMNI

Popular Alternatives